createdAt,value
2023-02-04T00:04:07.902Z,0.00
2023-02-04T00:09:07.811Z,0.00
2023-02-04T00:14:07.763Z,0.00
2023-02-04T00:19:07.674Z,0.00
2023-02-04T00:24:07.634Z,0.00
2023-02-04T00:29:07.547Z,0.00
2023-02-04T00:34:07.505Z,0.00
2023-02-04T00:39:07.418Z,0.00
2023-02-04T00:44:07.787Z,0.00
2023-02-04T00:49:07.285Z,0.00
2023-02-04T00:54:07.295Z,0.00
2023-02-04T00:59:07.168Z,0.00
2023-02-04T01:04:07.116Z,0.00
2023-02-04T01:09:29.428Z,0.00
2023-02-04T01:14:21.822Z,0.00
2023-02-04T01:19:21.762Z,0.00
2023-02-04T01:24:21.696Z,0.00
2023-02-04T01:29:21.658Z,0.00
2023-02-04T01:34:21.544Z,0.00
2023-02-04T01:39:21.545Z,0.00
2023-02-04T01:44:21.450Z,0.00
2023-02-04T01:49:21.402Z,0.00
2023-02-04T01:54:21.282Z,0.00
2023-02-04T01:59:21.245Z,0.00
2023-02-04T02:04:21.165Z,0.00
2023-02-04T02:09:21.119Z,0.00
2023-02-04T02:14:21.042Z,0.00
2023-02-04T02:19:20.986Z,0.00
2023-02-04T02:24:20.903Z,0.00
2023-02-04T02:29:20.868Z,0.00
2023-02-04T02:34:20.848Z,0.00
2023-02-04T02:39:20.725Z,0.00
2023-02-04T02:44:20.656Z,0.00
2023-02-04T02:49:20.603Z,0.00
2023-02-04T02:54:20.501Z,0.00
2023-02-04T02:59:20.450Z,0.00
2023-02-04T03:04:20.412Z,0.00
2023-02-04T03:09:20.312Z,0.00
2023-02-04T03:14:20.278Z,0.00
2023-02-04T03:19:20.214Z,0.00
2023-02-04T03:24:20.120Z,0.00
2023-02-04T03:29:20.065Z,0.00
2023-02-04T03:34:20.006Z,0.00
2023-02-04T03:39:19.979Z,0.00
2023-02-04T03:44:19.852Z,0.00
2023-02-04T03:49:19.818Z,0.00
2023-02-04T03:54:19.737Z,0.00
2023-02-04T03:59:19.685Z,0.00
2023-02-04T04:04:19.568Z,0.00
2023-02-04T04:09:19.558Z,0.00
2023-02-04T04:14:19.467Z,0.00
2023-02-04T04:19:19.417Z,0.00
2023-02-04T04:24:19.338Z,0.00
2023-02-04T04:29:19.285Z,0.00
2023-02-04T04:34:19.193Z,0.00
2023-02-04T04:39:19.155Z,0.00
2023-02-04T04:44:19.208Z,0.00
2023-02-04T04:49:19.025Z,0.00
2023-02-04T04:54:18.940Z,0.00
2023-02-04T04:59:18.876Z,0.00
2023-02-04T05:04:18.800Z,0.00
2023-02-04T05:09:18.780Z,0.00
2023-02-04T05:14:18.672Z,0.00
2023-02-04T05:19:34.779Z,0.00
2023-02-04T05:24:27.179Z,0.00
2023-02-04T05:29:27.083Z,0.00
2023-02-04T05:34:27.070Z,0.00
2023-02-04T05:39:26.963Z,0.00
2023-02-04T05:44:27.559Z,0.00
2023-02-04T05:49:26.846Z,0.00
2023-02-04T05:54:26.786Z,0.00
2023-02-04T05:59:26.708Z,0.00
2023-02-04T06:04:26.670Z,0.00
2023-02-04T06:09:26.593Z,0.00
2023-02-04T06:14:26.567Z,0.00
2023-02-04T06:19:26.430Z,0.00
2023-02-04T06:24:26.412Z,0.00
2023-02-04T06:29:26.304Z,0.00
2023-02-04T06:34:26.243Z,0.00
2023-02-04T06:39:26.182Z,0.00
2023-02-04T06:44:26.132Z,8.00
2023-02-04T06:49:26.044Z,12.00
2023-02-04T06:54:26.020Z,20.00
2023-02-04T06:59:26.601Z,36.00
2023-02-04T07:04:25.926Z,44.00
2023-02-04T07:09:25.778Z,72.00
2023-02-04T07:14:25.766Z,128.00
2023-02-04T07:19:25.669Z,168.00
2023-02-04T07:24:25.597Z,232.00
2023-02-04T07:29:26.104Z,320.00
2023-02-04T07:34:25.504Z,380.00
2023-02-04T07:39:25.403Z,508.00
2023-02-04T07:44:25.321Z,640.00
2023-02-04T07:49:25.263Z,668.00
2023-02-04T07:54:25.191Z,780.00
2023-02-04T07:59:25.138Z,920.00
2023-02-04T08:04:25.082Z,1104.00
2023-02-04T08:09:25.000Z,1000.00
2023-02-04T08:14:24.917Z,1096.00
2023-02-04T08:19:24.874Z,1324.00
2023-02-04T08:24:24.796Z,1420.00
2023-02-04T08:29:24.732Z,1316.00
2023-02-04T08:34:24.648Z,2112.00
2023-02-04T08:39:24.626Z,2440.00
2023-02-04T08:44:24.637Z,3448.00
2023-02-04T08:49:24.493Z,3076.00
2023-02-04T08:54:24.387Z,2584.00
2023-02-04T08:59:24.367Z,1572.00
2023-02-04T09:04:24.295Z,1376.00
2023-02-04T09:09:26.191Z,1544.00
2023-02-04T09:14:24.161Z,1832.00
2023-02-04T09:19:24.127Z,2280.00
2023-02-04T09:24:24.046Z,1588.00
2023-02-04T09:29:23.948Z,1592.00
2023-02-04T09:34:23.924Z,2176.00
2023-02-04T09:39:23.870Z,1796.00
2023-02-04T09:44:23.787Z,2496.00
2023-02-04T09:49:23.735Z,5064.00
2023-02-04T09:54:24.343Z,7412.00
2023-02-04T09:59:23.561Z,5640.00
2023-02-04T10:04:23.496Z,5852.00
2023-02-04T10:09:23.431Z,9296.00
2023-02-04T10:14:23.414Z,5400.00
2023-02-04T10:19:23.303Z,5408.00
2023-02-04T10:24:23.220Z,2836.00
2023-02-04T10:29:23.186Z,2828.00
2023-02-04T10:34:23.081Z,3512.00
2023-02-04T10:39:23.062Z,3784.00
2023-02-04T10:44:22.962Z,4676.00
2023-02-04T10:49:22.931Z,5744.00
2023-02-04T10:54:22.830Z,3064.00
2023-02-04T10:59:22.898Z,1928.00
2023-02-04T11:04:22.720Z,2180.00
2023-02-04T11:09:22.634Z,2764.00
2023-02-04T11:14:22.582Z,3356.00
2023-02-04T11:19:22.516Z,27488.00
2023-02-04T11:24:22.432Z,7312.00
2023-02-04T11:29:22.389Z,6812.00
2023-02-04T11:34:22.304Z,8220.00
2023-02-04T11:39:22.288Z,7656.00
2023-02-04T11:44:22.175Z,4956.00
2023-02-04T11:49:22.126Z,7404.00
2023-02-04T11:54:22.022Z,6404.00
2023-02-04T11:59:21.976Z,6136.00
2023-02-04T12:04:21.909Z,6424.00
2023-02-04T12:09:21.850Z,2612.00
2023-02-04T12:14:21.780Z,1752.00
2023-02-04T12:19:21.735Z,1700.00
2023-02-04T12:24:21.667Z,1896.00
2023-02-04T12:29:21.589Z,1964.00
2023-02-04T12:34:21.518Z,3712.00
2023-02-04T12:39:21.469Z,14528.00
2023-02-04T12:44:21.364Z,14336.00
2023-02-04T12:49:21.325Z,3260.00
2023-02-04T12:54:21.249Z,2604.00
2023-02-04T12:59:21.201Z,3008.00
2023-02-04T13:04:21.095Z,4212.00
2023-02-04T13:09:21.051Z,4488.00
2023-02-04T13:14:20.968Z,3920.00
2023-02-04T13:19:20.928Z,3720.00
2023-02-04T13:24:20.828Z,3420.00
2023-02-04T13:29:20.779Z,2832.00
2023-02-04T13:34:20.781Z,2712.00
2023-02-04T13:39:20.645Z,2132.00
2023-02-04T13:44:20.568Z,1668.00
2023-02-04T13:49:20.522Z,1288.00
2023-02-04T13:54:20.480Z,1132.00
2023-02-04T13:59:21.134Z,1168.00
2023-02-04T14:04:20.305Z,1184.00
2023-02-04T14:09:20.259Z,1304.00
2023-02-04T14:14:20.190Z,1404.00
2023-02-04T14:19:20.139Z,1376.00
2023-02-04T14:24:20.030Z,1256.00
2023-02-04T14:29:20.008Z,1284.00
2023-02-04T14:34:19.917Z,1176.00
2023-02-04T14:39:21.155Z,1020.00
2023-02-04T14:44:19.789Z,1240.00
2023-02-04T14:49:19.732Z,1596.00
2023-02-04T14:54:19.637Z,1680.00
2023-02-04T14:59:19.664Z,1552.00
2023-02-04T15:04:19.489Z,1396.00
2023-02-04T15:09:19.465Z,1232.00
2023-02-04T15:14:19.376Z,1144.00
2023-02-04T15:19:19.320Z,1144.00
2023-02-04T15:24:19.243Z,972.00
2023-02-04T15:29:19.209Z,884.00
2023-02-04T15:34:19.110Z,772.00
2023-02-04T15:39:19.040Z,688.00
2023-02-04T15:44:18.977Z,632.00
2023-02-04T15:49:18.928Z,576.00
2023-02-04T15:54:18.873Z,540.00
2023-02-04T15:59:18.807Z,436.00
2023-02-04T16:04:20.777Z,360.00
2023-02-04T16:09:18.670Z,284.00
2023-02-04T16:14:18.577Z,220.00
2023-02-04T16:19:18.572Z,152.00
2023-02-04T16:24:18.522Z,100.00
2023-02-04T16:29:18.421Z,64.00
2023-02-04T16:34:18.322Z,40.00
2023-02-04T16:39:18.294Z,24.00
2023-02-04T16:44:18.188Z,12.00
2023-02-04T16:49:18.134Z,4.00
2023-02-04T16:54:18.076Z,0.00
2023-02-04T16:59:18.006Z,0.00
2023-02-04T17:04:17.987Z,0.00
2023-02-04T17:09:17.885Z,0.00
2023-02-04T17:14:17.899Z,0.00
2023-02-04T17:19:17.757Z,0.00
2023-02-04T17:24:17.669Z,0.00
2023-02-04T17:29:17.615Z,0.00
2023-02-04T17:34:17.533Z,0.00
2023-02-04T17:39:17.492Z,0.00
2023-02-04T17:44:17.412Z,0.00
2023-02-04T17:49:17.353Z,0.00
2023-02-04T17:54:17.268Z,0.00
2023-02-04T17:59:17.231Z,0.00
2023-02-04T18:04:17.139Z,0.00
2023-02-04T18:09:17.136Z,0.00
2023-02-04T18:14:17.031Z,0.00
2023-02-04T18:19:16.992Z,0.00
2023-02-04T18:24:16.906Z,0.00
2023-02-04T18:29:16.860Z,0.00
2023-02-04T18:34:16.800Z,0.00
2023-02-04T18:39:16.687Z,0.00
2023-02-04T18:44:16.625Z,0.00
2023-02-04T18:49:16.662Z,0.00
2023-02-04T18:54:17.032Z,0.00
2023-02-04T18:59:17.016Z,0.00
2023-02-04T19:04:16.346Z,0.00
2023-02-04T19:09:16.988Z,0.00
2023-02-04T19:14:16.728Z,0.00
2023-02-04T19:19:16.673Z,0.00
2023-02-04T19:24:16.476Z,0.00
2023-02-04T19:29:16.893Z,0.00
2023-02-04T19:34:16.260Z,0.00
2023-02-04T19:39:16.812Z,0.00
2023-02-04T19:44:16.241Z,0.00
2023-02-04T19:49:15.764Z,0.00
2023-02-04T19:54:15.754Z,0.00
2023-02-04T19:59:15.650Z,0.00
2023-02-04T20:04:15.570Z,0.00
2023-02-04T20:09:15.542Z,0.00
2023-02-04T20:14:15.522Z,0.00
2023-02-04T20:19:15.397Z,0.00
2023-02-04T20:24:15.316Z,0.00
2023-02-04T20:29:15.271Z,0.00
2023-02-04T20:34:15.149Z,0.00
2023-02-04T20:39:15.170Z,0.00
2023-02-04T20:44:15.007Z,0.00
2023-02-04T20:49:14.980Z,0.00
2023-02-04T20:54:14.893Z,0.00
2023-02-04T20:59:14.970Z,0.00
2023-02-04T21:04:14.787Z,0.00
2023-02-04T21:09:14.712Z,0.00
2023-02-04T21:14:14.634Z,0.00
2023-02-04T21:19:14.617Z,0.00
2023-02-04T21:24:14.523Z,0.00
2023-02-04T21:29:14.437Z,0.00
2023-02-04T21:34:14.469Z,0.00
2023-02-04T21:39:14.325Z,0.00
2023-02-04T21:44:14.248Z,0.00
2023-02-04T21:49:14.200Z,0.00
2023-02-04T21:54:14.107Z,0.00
2023-02-04T21:59:14.073Z,0.00
2023-02-04T22:04:14.083Z,0.00
2023-02-04T22:09:13.951Z,0.00
2023-02-04T22:14:13.865Z,0.00
2023-02-04T22:19:13.785Z,0.00
2023-02-04T22:24:14.086Z,0.00
2023-02-04T22:29:13.663Z,0.00
2023-02-04T22:34:13.578Z,0.00
2023-02-04T22:39:13.545Z,0.00
2023-02-04T22:44:13.545Z,0.00
2023-02-04T22:49:13.469Z,0.00
2023-02-04T22:54:13.342Z,0.00
2023-02-04T22:59:13.298Z,0.00
2023-02-04T23:04:13.612Z,0.00
2023-02-04T23:09:13.124Z,0.00
2023-02-04T23:14:13.032Z,0.00
2023-02-04T23:19:13.053Z,0.00
2023-02-04T23:24:12.933Z,0.00
2023-02-04T23:29:12.892Z,0.00
2023-02-04T23:34:12.812Z,0.00
2023-02-04T23:39:12.766Z,0.00
2023-02-04T23:44:12.804Z,0.00
2023-02-04T23:49:12.652Z,0.00
2023-02-04T23:54:12.571Z,0.00
2023-02-04T23:59:12.481Z,0.00
